createdAt,value
2023-05-19T00:01:09.019Z,101736.16
2023-05-19T00:05:12.870Z,101735.78
2023-05-19T00:09:14.423Z,101728.44
2023-05-19T00:13:16.042Z,101733.53
2023-05-19T00:17:17.727Z,101725.97
2023-05-19T00:21:19.638Z,101731.09
2023-05-19T00:25:21.224Z,101740.31
2023-05-19T00:29:22.630Z,101733.97
2023-05-19T00:33:23.985Z,101739.22
2023-05-19T00:37:25.382Z,101740.00
2023-05-19T00:41:26.828Z,101735.22
2023-05-19T00:45:29.226Z,101742.28
2023-05-19T00:49:30.702Z,101731.81
2023-05-19T00:53:33.937Z,101737.75
2023-05-19T00:57:35.685Z,101732.94
2023-05-19T01:01:37.234Z,101731.00
2023-05-19T01:05:41.690Z,101738.41
2023-05-19T01:09:43.473Z,101734.31
2023-05-19T01:13:45.617Z,101732.19
2023-05-19T01:18:07.352Z,101731.44
2023-05-19T01:22:13.186Z,101722.63
2023-05-19T01:26:14.732Z,101726.75
2023-05-19T01:30:25.386Z,101718.72
2023-05-19T01:34:27.663Z,101724.66
2023-05-19T01:38:29.939Z,101726.00
2023-05-19T01:42:37.200Z,101720.09
2023-05-19T01:46:38.821Z,101722.31
2023-05-19T01:50:41.916Z,101716.72
2023-05-19T01:54:43.364Z,101716.53
2023-05-19T01:58:47.439Z,101717.22
2023-05-19T02:03:03.871Z,101715.19
2023-05-19T02:07:25.958Z,101727.63
2023-05-19T02:11:38.441Z,101728.34
2023-05-19T02:15:45.450Z,101724.06
2023-05-19T02:19:47.234Z,101717.56
2023-05-19T02:23:51.475Z,101727.81
2023-05-19T02:27:52.919Z,101729.75
2023-05-19T02:31:54.398Z,101729.50
2023-05-19T02:35:57.148Z,101728.31
2023-05-19T02:39:58.554Z,101724.81
2023-05-19T02:43:59.987Z,101716.00
2023-05-19T02:48:01.468Z,101719.72
2023-05-19T02:52:03.798Z,101714.06
2023-05-19T02:56:05.202Z,101708.50
2023-05-19T03:00:07.885Z,101713.94
2023-05-19T03:04:09.547Z,101701.41
2023-05-19T03:08:11.002Z,101702.63
2023-05-19T03:12:12.528Z,101701.41
2023-05-19T03:16:14.068Z,101697.31
2023-05-19T03:20:18.386Z,101693.97
2023-05-19T03:24:19.849Z,101700.09
2023-05-19T03:28:21.442Z,101712.50
2023-05-19T03:32:22.951Z,101711.34
2023-05-19T03:36:24.404Z,101707.13
2023-05-19T03:40:25.830Z,101723.25
2023-05-19T03:44:27.249Z,101710.47
2023-05-19T03:48:28.604Z,101710.84
2023-05-19T03:52:29.988Z,101707.34
2023-05-19T03:56:32.699Z,101711.31
2023-05-19T04:00:34.366Z,101705.06
2023-05-19T04:04:37.349Z,101710.50
2023-05-19T04:08:41.569Z,101702.41
2023-05-19T04:12:43.000Z,101706.13
2023-05-19T04:16:44.426Z,101715.16
2023-05-19T04:20:45.832Z,101702.13
2023-05-19T04:24:47.728Z,101709.38
2023-05-19T04:28:49.136Z,101703.22
2023-05-19T04:32:50.949Z,101704.34
2023-05-19T04:36:53.463Z,101712.66
2023-05-19T04:40:56.313Z,101707.25
2023-05-19T04:44:58.122Z,101710.09
2023-05-19T04:49:01.170Z,101718.25
2023-05-19T04:53:02.622Z,101714.84
2023-05-19T04:57:04.550Z,101716.50
2023-05-19T05:01:05.955Z,101714.56
2023-05-19T05:05:08.007Z,101720.56
2023-05-19T05:09:10.507Z,101711.47
2023-05-19T05:13:12.192Z,101713.84
2023-05-19T05:17:14.030Z,101716.16
2023-05-19T05:21:15.859Z,101709.00
2023-05-19T05:25:18.007Z,101709.63
2023-05-19T05:29:20.052Z,101706.78
2023-05-19T05:33:22.244Z,101716.06
2023-05-19T05:37:23.812Z,101703.44
2023-05-19T05:41:25.266Z,101709.28
2023-05-19T05:45:26.725Z,101707.34
2023-05-19T05:49:28.439Z,101696.31
2023-05-19T05:53:32.212Z,101705.88
2023-05-19T05:57:35.473Z,101701.19
2023-05-19T06:01:37.277Z,101699.09
2023-05-19T06:05:39.148Z,101691.69
2023-05-19T06:09:40.708Z,101698.72
2023-05-19T06:13:42.171Z,101707.69
2023-05-19T06:17:43.635Z,101696.03
2023-05-19T06:21:45.157Z,101690.63
2023-05-19T06:25:46.822Z,101694.84
2023-05-19T06:29:48.349Z,101696.22
2023-05-19T06:33:49.680Z,101682.16
2023-05-19T06:37:51.300Z,101672.72
2023-05-19T06:41:52.646Z,101685.56
2023-05-19T06:45:54.246Z,101677.72
2023-05-19T06:49:55.821Z,101666.31
2023-05-19T06:53:57.395Z,101676.91
2023-05-19T06:57:58.845Z,101679.16
2023-05-19T07:02:02.412Z,101676.97
2023-05-19T07:06:05.681Z,101679.38
2023-05-19T07:10:08.898Z,101678.78
2023-05-19T07:14:10.270Z,101678.34
2023-05-19T07:18:11.706Z,101667.06
2023-05-19T07:22:13.102Z,101666.94
2023-05-19T07:26:14.500Z,101668.25
2023-05-19T07:30:15.966Z,101663.00
2023-05-19T07:34:17.376Z,101671.97
2023-05-19T07:38:18.837Z,101668.81
2023-05-19T07:42:20.326Z,101673.31
2023-05-19T07:46:22.264Z,101663.31
2023-05-19T07:50:23.826Z,101665.09
2023-05-19T07:54:25.361Z,101658.44
2023-05-19T07:58:26.867Z,101654.41
2023-05-19T08:02:28.315Z,101656.19
2023-05-19T08:06:30.103Z,101649.19
2023-05-19T08:10:31.689Z,101643.13
2023-05-19T08:14:34.776Z,101647.63
2023-05-19T08:18:36.148Z,101650.50
2023-05-19T08:22:37.651Z,101644.94
2023-05-19T08:26:39.003Z,101642.25
2023-05-19T08:30:40.413Z,101629.44
2023-05-19T08:34:42.132Z,101635.19
2023-05-19T08:38:43.588Z,101629.81
2023-05-19T08:42:45.838Z,101615.69
2023-05-19T08:46:47.911Z,101615.94
2023-05-19T08:51:08.122Z,101616.69
2023-05-19T08:55:21.611Z,101613.53
2023-05-19T08:59:23.224Z,101600.41
2023-05-19T09:03:26.525Z,101595.28
2023-05-19T09:07:30.149Z,101609.41
2023-05-19T09:11:32.693Z,101603.72
2023-05-19T09:15:36.796Z,101596.31
2023-05-19T09:19:43.189Z,101591.16
2023-05-19T09:23:47.425Z,101582.78
2023-05-19T09:27:49.604Z,101575.47
2023-05-19T09:31:51.732Z,101564.47
2023-05-19T09:35:55.223Z,101562.25
2023-05-19T09:39:56.643Z,101564.69
2023-05-19T09:43:58.472Z,101551.25
2023-05-19T09:48:04.651Z,101567.91
2023-05-19T09:52:07.772Z,101555.41
2023-05-19T09:56:09.956Z,101545.59
2023-05-19T10:00:14.706Z,101546.50
2023-05-19T10:04:17.147Z,101544.59
2023-05-19T10:08:18.669Z,101540.66
2023-05-19T10:12:20.892Z,101532.72
2023-05-19T10:16:26.623Z,101546.41
2023-05-19T10:20:28.503Z,101537.06
2023-05-19T10:24:29.874Z,101535.91
2023-05-19T10:28:36.868Z,101522.50
2023-05-19T10:32:40.392Z,101525.34
2023-05-19T10:36:48.440Z,101522.41
2023-05-19T10:40:58.771Z,101518.28
2023-05-19T10:45:17.827Z,101517.34
2023-05-19T10:49:22.750Z,101513.53
2023-05-19T10:53:33.256Z,101510.06
2023-05-19T10:57:35.443Z,101502.97
2023-05-19T11:01:38.795Z,101508.72
2023-05-19T11:05:40.256Z,101509.66
2023-05-19T11:09:41.696Z,101493.75
2023-05-19T11:13:47.990Z,101503.84
2023-05-19T11:17:50.378Z,101500.69
2023-05-19T11:21:54.863Z,101489.28
2023-05-19T11:25:56.357Z,101492.06
2023-05-19T11:30:00.333Z,101489.34
2023-05-19T11:34:02.140Z,101482.03
2023-05-19T11:38:03.737Z,101491.06
2023-05-19T11:42:05.378Z,101468.25
2023-05-19T11:46:09.388Z,101477.94
2023-05-19T11:50:12.725Z,101468.81
2023-05-19T11:54:14.242Z,101478.97
2023-05-19T11:58:16.557Z,101469.78
2023-05-19T12:02:25.056Z,101459.31
2023-05-19T12:06:27.728Z,101448.53
2023-05-19T12:10:34.348Z,101453.63
2023-05-19T12:14:36.063Z,101436.44
2023-05-19T12:18:38.479Z,101451.69
2023-05-19T12:22:39.992Z,101439.41
2023-05-19T12:26:41.407Z,101434.38
2023-05-19T12:30:48.385Z,101436.53
2023-05-19T12:34:53.749Z,101432.84
2023-05-19T12:38:55.781Z,101421.94
2023-05-19T12:42:59.214Z,101427.53
2023-05-19T12:47:04.935Z,101431.47
2023-05-19T12:51:06.373Z,101418.75
2023-05-19T12:55:09.125Z,101426.88
2023-05-19T12:59:10.624Z,101407.13
2023-05-19T13:03:20.338Z,101411.06
2023-05-19T13:07:22.204Z,101399.81
2023-05-19T13:11:23.587Z,101411.47
2023-05-19T13:15:26.737Z,101406.00
2023-05-19T13:19:28.300Z,101405.25
2023-05-19T13:23:29.684Z,101400.78
2023-05-19T13:27:31.046Z,101395.81
2023-05-19T13:31:32.631Z,101389.44
2023-05-19T13:35:42.454Z,101392.19
2023-05-19T13:39:43.985Z,101386.63
2023-05-19T13:43:45.362Z,101375.25
2023-05-19T13:47:46.708Z,101378.97
2023-05-19T13:51:48.280Z,101379.09
2023-05-19T13:55:52.912Z,101372.16
2023-05-19T14:00:02.722Z,101357.84
2023-05-19T14:04:05.604Z,101363.84
2023-05-19T14:08:07.767Z,101360.94
2023-05-19T14:12:12.065Z,101359.00
2023-05-19T14:16:13.508Z,101347.69
2023-05-19T14:20:15.293Z,101353.28
2023-05-19T14:24:16.746Z,101355.78
2023-05-19T14:28:18.112Z,101355.47
2023-05-19T14:32:19.811Z,101350.47
2023-05-19T14:36:21.515Z,101351.34
2023-05-19T14:40:22.891Z,101351.28
2023-05-19T14:44:24.341Z,101346.91
2023-05-19T14:48:25.859Z,101343.69
2023-05-19T14:52:27.317Z,101341.28
2023-05-19T14:56:28.803Z,101348.13
2023-05-19T15:00:30.310Z,101339.47
2023-05-19T15:04:31.829Z,101337.56
2023-05-19T15:08:33.523Z,101332.50
2023-05-19T15:12:35.030Z,101327.50
2023-05-19T15:16:36.541Z,101316.50
2023-05-19T15:20:38.038Z,101327.16
2023-05-19T15:24:41.118Z,101311.97
2023-05-19T15:28:42.597Z,101318.44
2023-05-19T15:32:43.999Z,101315.41
2023-05-19T15:36:45.630Z,101311.03
2023-05-19T15:40:47.161Z,101315.31
2023-05-19T15:44:48.793Z,101304.75
2023-05-19T15:48:50.443Z,101301.38
2023-05-19T15:52:51.983Z,101298.78
2023-05-19T15:56:53.368Z,101302.47
2023-05-19T16:00:54.772Z,101305.28
2023-05-19T16:04:56.245Z,101308.97
2023-05-19T16:08:57.832Z,101294.75
2023-05-19T16:12:59.186Z,101286.88
2023-05-19T16:17:03.116Z,101284.88
2023-05-19T16:21:04.785Z,101273.34
2023-05-19T16:25:07.127Z,101284.63
2023-05-19T16:29:08.622Z,101275.78
2023-05-19T16:33:10.104Z,101265.56
2023-05-19T16:37:11.546Z,101260.81
2023-05-19T16:41:12.952Z,101263.31
2023-05-19T16:45:17.347Z,101270.19
2023-05-19T16:49:18.714Z,101265.53
2023-05-19T16:53:20.085Z,101259.91
2023-05-19T16:57:21.617Z,101267.63
2023-05-19T17:01:23.227Z,101263.31
2023-05-19T17:05:24.724Z,101258.88
2023-05-19T17:09:26.392Z,101258.63
2023-05-19T17:13:33.547Z,101244.31
2023-05-19T17:17:34.971Z,101254.16
2023-05-19T17:21:36.337Z,101257.31
2023-05-19T17:25:37.837Z,101262.22
2023-05-19T17:29:39.189Z,101267.28
2023-05-19T17:33:41.181Z,101267.19
2023-05-19T17:37:42.553Z,101263.41
2023-05-19T17:41:43.934Z,101279.09
2023-05-19T17:45:45.390Z,101274.13
2023-05-19T17:49:47.691Z,101274.19
2023-05-19T17:53:49.346Z,101280.31
2023-05-19T17:57:51.101Z,101285.69
2023-05-19T18:01:52.780Z,101296.47
2023-05-19T18:05:54.552Z,101299.81
2023-05-19T18:09:56.478Z,101295.47
2023-05-19T18:13:57.924Z,101295.72
2023-05-19T18:17:59.854Z,101305.31
2023-05-19T18:22:01.303Z,101302.84
2023-05-19T18:26:02.640Z,101310.03
2023-05-19T18:30:04.731Z,101314.16
2023-05-19T18:34:06.388Z,101317.09
2023-05-19T18:38:07.868Z,101317.16
2023-05-19T18:42:09.297Z,101312.66
2023-05-19T18:46:11.268Z,101324.66
2023-05-19T18:50:13.003Z,101320.31
2023-05-19T18:54:14.760Z,101321.72
2023-05-19T18:58:18.052Z,101325.13
2023-05-19T19:02:19.508Z,101318.59
2023-05-19T19:06:22.711Z,101332.31
2023-05-19T19:10:24.357Z,101339.81
2023-05-19T19:14:26.054Z,101343.88
2023-05-19T19:18:27.668Z,101341.28
2023-05-19T19:22:29.110Z,101348.88
2023-05-19T19:26:30.583Z,101351.44
2023-05-19T19:30:32.235Z,101357.72
2023-05-19T19:34:33.866Z,101356.44
2023-05-19T19:38:36.603Z,101370.91
2023-05-19T19:42:38.525Z,101370.13
2023-05-19T19:46:39.974Z,101371.38
2023-05-19T19:50:41.976Z,101383.41
2023-05-19T19:54:43.460Z,101388.03
2023-05-19T19:58:45.102Z,101383.69
2023-05-19T20:06:53.021Z,101385.84
2023-05-19T20:10:55.128Z,101388.19
2023-05-19T20:14:56.580Z,101385.38
2023-05-19T20:18:58.086Z,101392.06
2023-05-19T20:22:59.548Z,101402.09
2023-05-19T20:27:01.053Z,101404.88
2023-05-19T20:31:02.513Z,101403.91
2023-05-19T20:35:04.122Z,101413.78
2023-05-19T20:39:06.971Z,101408.97
2023-05-19T20:43:08.397Z,101421.53
2023-05-19T20:47:10.457Z,101415.59
2023-05-19T20:51:11.903Z,101413.41
2023-05-19T20:55:13.312Z,101421.66
2023-05-19T20:59:14.722Z,101431.00
2023-05-19T21:03:16.175Z,101422.34
2023-05-19T21:07:17.828Z,101428.94
2023-05-19T21:11:19.323Z,101426.66
2023-05-19T21:15:20.906Z,101438.53
2023-05-19T21:19:23.306Z,101428.94
2023-05-19T21:23:24.809Z,101437.56
2023-05-19T21:27:26.421Z,101444.94
2023-05-19T21:31:27.904Z,101442.63
2023-05-19T21:35:29.364Z,101443.81
2023-05-19T21:39:30.759Z,101442.72
2023-05-19T21:43:32.475Z,101445.00
2023-05-19T21:47:33.930Z,101440.13
2023-05-19T21:51:35.742Z,101433.66
2023-05-19T21:55:37.124Z,101437.25
2023-05-19T21:59:38.939Z,101445.31
2023-05-19T22:03:40.618Z,101452.19
2023-05-19T22:07:42.187Z,101442.81
2023-05-19T22:11:43.650Z,101432.50
2023-05-19T22:15:45.093Z,101434.25
2023-05-19T22:19:46.525Z,101442.72
2023-05-19T22:23:48.106Z,101444.97
2023-05-19T22:27:49.605Z,101443.22
2023-05-19T22:31:51.181Z,101433.41
2023-05-19T22:35:52.529Z,101437.09
2023-05-19T22:39:54.263Z,101455.63
2023-05-19T22:43:55.692Z,101447.75
2023-05-19T22:47:57.224Z,101448.44
2023-05-19T22:51:58.645Z,101451.13
2023-05-19T22:56:00.005Z,101437.28
2023-05-19T23:00:01.531Z,101446.16
2023-05-19T23:04:03.439Z,101445.03
2023-05-19T23:08:05.099Z,101435.53
2023-05-19T23:12:06.909Z,101437.47
2023-05-19T23:16:08.429Z,101439.69
2023-05-19T23:20:10.566Z,101441.34
2023-05-19T23:24:12.021Z,101435.09
2023-05-19T23:28:13.367Z,101437.56
2023-05-19T23:32:15.280Z,101433.50
2023-05-19T23:36:17.744Z,101422.78
2023-05-19T23:40:19.091Z,101422.63
2023-05-19T23:44:20.621Z,101418.16
2023-05-19T23:48:22.046Z,101427.81
2023-05-19T23:52:23.390Z,101431.97
2023-05-19T23:56:24.863Z,101434.91
